sensor_id;sensor_type;location;lat;lon;timestamp;P1;durP1;ratioP1;P2;durP2;ratioP2
77573;SDS011;66710;48.868;9.080;2023-01-28T00:01:13;6.72;;;3.55;;
77573;SDS011;66710;48.868;9.080;2023-01-28T00:03:40;7.70;;;3.80;;
77573;SDS011;66710;48.868;9.080;2023-01-28T00:06:08;8.18;;;3.78;;
77573;SDS011;66710;48.868;9.080;2023-01-28T00:08:39;6.30;;;3.40;;
77573;SDS011;66710;48.868;9.080;2023-01-28T00:11:06;7.40;;;3.47;;
77573;SDS011;66710;48.868;9.080;2023-01-28T00:13:32;6.50;;;3.50;;
77573;SDS011;66710;48.868;9.080;2023-01-28T00:16:00;7.63;;;4.10;;
77573;SDS011;66710;48.868;9.080;2023-01-28T00:18:27;8.43;;;3.70;;
77573;SDS011;66710;48.868;9.080;2023-01-28T00:21:12;7.93;;;3.83;;
77573;SDS011;66710;48.868;9.080;2023-01-28T00:23:39;7.47;;;3.88;;
77573;SDS011;66710;48.868;9.080;2023-01-28T00:26:07;7.20;;;3.47;;
77573;SDS011;66710;48.868;9.080;2023-01-28T00:28:36;7.95;;;4.25;;
77573;SDS011;66710;48.868;9.080;2023-01-28T00:31:08;6.65;;;3.50;;
77573;SDS011;66710;48.868;9.080;2023-01-28T00:33:38;6.88;;;3.67;;
77573;SDS011;66710;48.868;9.080;2023-01-28T00:36:03;8.05;;;3.78;;
77573;SDS011;66710;48.868;9.080;2023-01-28T00:38:30;7.32;;;3.78;;
77573;SDS011;66710;48.868;9.080;2023-01-28T00:41:05;7.13;;;3.38;;
77573;SDS011;66710;48.868;9.080;2023-01-28T00:43:35;7.18;;;3.53;;
77573;SDS011;66710;48.868;9.080;2023-01-28T00:46:01;6.28;;;3.08;;
77573;SDS011;66710;48.868;9.080;2023-01-28T00:48:27;5.07;;;2.67;;
77573;SDS011;66710;48.868;9.080;2023-01-28T00:50:53;6.10;;;3.20;;
77573;SDS011;66710;48.868;9.080;2023-01-28T00:53:18;5.80;;;2.90;;
77573;SDS011;66710;48.868;9.080;2023-01-28T00:55:43;6.57;;;3.50;;
77573;SDS011;66710;48.868;9.080;2023-01-28T00:58:08;6.57;;;3.05;;
77573;SDS011;66710;48.868;9.080;2023-01-28T01:00:34;6.47;;;3.17;;
77573;SDS011;66710;48.868;9.080;2023-01-28T01:02:59;5.13;;;2.88;;
77573;SDS011;66710;48.868;9.080;2023-01-28T01:05:24;7.72;;;3.25;;
77573;SDS011;66710;48.868;9.080;2023-01-28T01:07:49;7.35;;;3.17;;
77573;SDS011;66710;48.868;9.080;2023-01-28T01:10:16;6.90;;;3.30;;
77573;SDS011;66710;48.868;9.080;2023-01-28T01:12:44;6.60;;;3.05;;
77573;SDS011;66710;48.868;9.080;2023-01-28T01:15:11;6.57;;;3.17;;
77573;SDS011;66710;48.868;9.080;2023-01-28T01:17:41;5.75;;;2.97;;
77573;SDS011;66710;48.868;9.080;2023-01-28T01:20:08;5.93;;;2.78;;
77573;SDS011;66710;48.868;9.080;2023-01-28T01:22:38;6.75;;;3.00;;
77573;SDS011;66710;48.868;9.080;2023-01-28T01:25:03;6.35;;;2.90;;
77573;SDS011;66710;48.868;9.080;2023-01-28T01:27:30;6.50;;;3.05;;
77573;SDS011;66710;48.868;9.080;2023-01-28T01:29:56;5.82;;;3.00;;
77573;SDS011;66710;48.868;9.080;2023-01-28T01:32:22;5.57;;;2.75;;
77573;SDS011;66710;48.868;9.080;2023-01-28T01:34:48;6.35;;;3.10;;
77573;SDS011;66710;48.868;9.080;2023-01-28T01:37:14;5.70;;;2.88;;
77573;SDS011;66710;48.868;9.080;2023-01-28T01:39:39;6.20;;;3.20;;
77573;SDS011;66710;48.868;9.080;2023-01-28T01:42:04;6.57;;;3.10;;
77573;SDS011;66710;48.868;9.080;2023-01-28T01:47:17;5.93;;;3.20;;
77573;SDS011;66710;48.868;9.080;2023-01-28T01:49:46;5.65;;;2.95;;
77573;SDS011;66710;48.868;9.080;2023-01-28T01:52:13;5.45;;;2.70;;
77573;SDS011;66710;48.868;9.080;2023-01-28T01:54:42;6.22;;;3.05;;
77573;SDS011;66710;48.868;9.080;2023-01-28T01:57:16;7.00;;;3.28;;
77573;SDS011;66710;48.868;9.080;2023-01-28T01:59:47;3.63;;;1.92;;
77573;SDS011;66710;48.868;9.080;2023-01-28T02:02:12;4.90;;;2.80;;
77573;SDS011;66710;48.868;9.080;2023-01-28T02:04:39;5.50;;;2.90;;
77573;SDS011;66710;48.868;9.080;2023-01-28T02:07:07;4.82;;;2.53;;
77573;SDS011;66710;48.868;9.080;2023-01-28T02:09:34;7.72;;;3.28;;
77573;SDS011;66710;48.868;9.080;2023-01-28T02:12:06;6.30;;;2.85;;
77573;SDS011;66710;48.868;9.080;2023-01-28T02:14:35;5.82;;;2.88;;
77573;SDS011;66710;48.868;9.080;2023-01-28T02:17:06;4.80;;;2.85;;
77573;SDS011;66710;48.868;9.080;2023-01-28T02:31:35;6.63;;;3.17;;
77573;SDS011;66710;48.868;9.080;2023-01-28T02:37:05;5.15;;;2.70;;
77573;SDS011;66710;48.868;9.080;2023-01-28T02:39:54;5.53;;;2.63;;
77573;SDS011;66710;48.868;9.080;2023-01-28T02:42:30;5.47;;;2.70;;
77573;SDS011;66710;48.868;9.080;2023-01-28T02:44:59;6.88;;;3.05;;
77573;SDS011;66710;48.868;9.080;2023-01-28T02:47:24;4.70;;;2.23;;
77573;SDS011;66710;48.868;9.080;2023-01-28T02:50:10;7.20;;;3.40;;
77573;SDS011;66710;48.868;9.080;2023-01-28T03:04:05;6.07;;;2.75;;
77573;SDS011;66710;48.868;9.080;2023-01-28T03:06:41;8.27;;;3.33;;
77573;SDS011;66710;48.868;9.080;2023-01-28T03:09:12;6.82;;;2.70;;
77573;SDS011;66710;48.868;9.080;2023-01-28T03:11:54;8.02;;;3.85;;
77573;SDS011;66710;48.868;9.080;2023-01-28T03:14:42;6.80;;;3.60;;
77573;SDS011;66710;48.868;9.080;2023-01-28T03:20:40;6.47;;;3.08;;
77573;SDS011;66710;48.868;9.080;2023-01-28T03:23:31;6.97;;;3.53;;
77573;SDS011;66710;48.868;9.080;2023-01-28T03:26:21;5.05;;;2.45;;
77573;SDS011;66710;48.868;9.080;2023-01-28T03:29:11;7.13;;;3.63;;
77573;SDS011;66710;48.868;9.080;2023-01-28T03:31:58;7.55;;;3.92;;
77573;SDS011;66710;48.868;9.080;2023-01-28T03:34:43;5.35;;;3.67;;
77573;SDS011;66710;48.868;9.080;2023-01-28T03:37:28;8.30;;;4.30;;
77573;SDS011;66710;48.868;9.080;2023-01-28T03:39:54;7.72;;;3.90;;
77573;SDS011;66710;48.868;9.080;2023-01-28T03:42:22;8.45;;;4.63;;
77573;SDS011;66710;48.868;9.080;2023-01-28T03:44:47;8.15;;;4.75;;
77573;SDS011;66710;48.868;9.080;2023-01-28T03:47:13;9.05;;;4.75;;
77573;SDS011;66710;48.868;9.080;2023-01-28T03:49:39;8.38;;;4.57;;
77573;SDS011;66710;48.868;9.080;2023-01-28T03:52:13;8.82;;;4.53;;
77573;SDS011;66710;48.868;9.080;2023-01-28T03:54:39;9.17;;;4.80;;
77573;SDS011;66710;48.868;9.080;2023-01-28T03:57:05;8.95;;;4.25;;
77573;SDS011;66710;48.868;9.080;2023-01-28T03:59:30;8.60;;;4.43;;
77573;SDS011;66710;48.868;9.080;2023-01-28T04:01:56;8.65;;;4.32;;
77573;SDS011;66710;48.868;9.080;2023-01-28T04:04:22;9.38;;;4.53;;
77573;SDS011;66710;48.868;9.080;2023-01-28T04:06:51;8.05;;;4.15;;
77573;SDS011;66710;48.868;9.080;2023-01-28T04:09:19;10.43;;;4.70;;
77573;SDS011;66710;48.868;9.080;2023-01-28T04:11:45;8.18;;;4.43;;
77573;SDS011;66710;48.868;9.080;2023-01-28T04:14:10;9.85;;;4.50;;
77573;SDS011;66710;48.868;9.080;2023-01-28T04:16:39;8.35;;;4.50;;
77573;SDS011;66710;48.868;9.080;2023-01-28T04:19:08;9.32;;;4.25;;
77573;SDS011;66710;48.868;9.080;2023-01-28T04:21:34;9.50;;;4.15;;
77573;SDS011;66710;48.868;9.080;2023-01-28T04:24:00;8.30;;;4.68;;
77573;SDS011;66710;48.868;9.080;2023-01-28T04:26:25;7.90;;;4.10;;
77573;SDS011;66710;48.868;9.080;2023-01-28T04:28:51;7.35;;;3.78;;
77573;SDS011;66710;48.868;9.080;2023-01-28T04:31:17;9.00;;;4.57;;
77573;SDS011;66710;48.868;9.080;2023-01-28T04:33:42;10.30;;;4.53;;
77573;SDS011;66710;48.868;9.080;2023-01-28T04:36:07;9.73;;;4.38;;
77573;SDS011;66710;48.868;9.080;2023-01-28T04:38:33;8.63;;;4.55;;
77573;SDS011;66710;48.868;9.080;2023-01-28T04:40:58;8.73;;;4.18;;
77573;SDS011;66710;48.868;9.080;2023-01-28T04:43:23;8.43;;;4.65;;
77573;SDS011;66710;48.868;9.080;2023-01-28T04:45:49;8.07;;;4.55;;
77573;SDS011;66710;48.868;9.080;2023-01-28T04:48:14;9.55;;;4.85;;
77573;SDS011;66710;48.868;9.080;2023-01-28T04:50:41;9.77;;;4.97;;
77573;SDS011;66710;48.868;9.080;2023-01-28T04:53:07;6.47;;;3.47;;
77573;SDS011;66710;48.868;9.080;2023-01-28T04:55:32;6.00;;;3.30;;
77573;SDS011;66710;48.868;9.080;2023-01-28T04:57:58;9.23;;;4.40;;
77573;SDS011;66710;48.868;9.080;2023-01-28T05:00:23;8.07;;;4.22;;
77573;SDS011;66710;48.868;9.080;2023-01-28T05:02:48;8.73;;;4.20;;
77573;SDS011;66710;48.868;9.080;2023-01-28T05:05:14;8.93;;;4.80;;
77573;SDS011;66710;48.868;9.080;2023-01-28T05:07:39;8.20;;;4.22;;
77573;SDS011;66710;48.868;9.080;2023-01-28T05:10:04;8.85;;;4.63;;
77573;SDS011;66710;48.868;9.080;2023-01-28T05:12:30;7.60;;;3.80;;
77573;SDS011;66710;48.868;9.080;2023-01-28T05:14:57;5.32;;;3.17;;
77573;SDS011;66710;48.868;9.080;2023-01-28T05:17:24;10.15;;;4.68;;
77573;SDS011;66710;48.868;9.080;2023-01-28T05:19:49;10.63;;;5.15;;
77573;SDS011;66710;48.868;9.080;2023-01-28T05:22:14;6.78;;;3.67;;
77573;SDS011;66710;48.868;9.080;2023-01-28T05:24:40;6.80;;;3.65;;
77573;SDS011;66710;48.868;9.080;2023-01-28T05:27:05;4.15;;;2.25;;
77573;SDS011;66710;48.868;9.080;2023-01-28T05:29:31;8.23;;;4.68;;
77573;SDS011;66710;48.868;9.080;2023-01-28T05:31:56;12.18;;;4.78;;
77573;SDS011;66710;48.868;9.080;2023-01-28T05:34:22;9.18;;;4.20;;
77573;SDS011;66710;48.868;9.080;2023-01-28T05:36:47;9.05;;;4.60;;
77573;SDS011;66710;48.868;9.080;2023-01-28T05:39:12;9.40;;;4.97;;
77573;SDS011;66710;48.868;9.080;2023-01-28T05:41:37;10.48;;;4.95;;
77573;SDS011;66710;48.868;9.080;2023-01-28T05:44:03;10.52;;;4.95;;
77573;SDS011;66710;48.868;9.080;2023-01-28T05:46:28;10.25;;;5.07;;
77573;SDS011;66710;48.868;9.080;2023-01-28T05:48:53;11.38;;;5.10;;
77573;SDS011;66710;48.868;9.080;2023-01-28T05:51:18;9.90;;;5.22;;
77573;SDS011;66710;48.868;9.080;2023-01-28T05:53:44;9.35;;;4.90;;
77573;SDS011;66710;48.868;9.080;2023-01-28T05:56:09;9.48;;;4.88;;
77573;SDS011;66710;48.868;9.080;2023-01-28T05:58:34;9.98;;;5.63;;
77573;SDS011;66710;48.868;9.080;2023-01-28T06:01:00;12.05;;;6.70;;
77573;SDS011;66710;48.868;9.080;2023-01-28T06:03:25;14.07;;;7.43;;
77573;SDS011;66710;48.868;9.080;2023-01-28T06:05:50;12.52;;;6.32;;
77573;SDS011;66710;48.868;9.080;2023-01-28T06:08:15;14.20;;;7.10;;
77573;SDS011;66710;48.868;9.080;2023-01-28T06:10:41;19.25;;;8.93;;
77573;SDS011;66710;48.868;9.080;2023-01-28T06:13:06;19.85;;;8.88;;
77573;SDS011;66710;48.868;9.080;2023-01-28T06:15:31;12.40;;;6.60;;
77573;SDS011;66710;48.868;9.080;2023-01-28T06:17:56;9.45;;;4.95;;
77573;SDS011;66710;48.868;9.080;2023-01-28T06:20:22;9.25;;;5.40;;
77573;SDS011;66710;48.868;9.080;2023-01-28T06:22:49;10.15;;;5.63;;
77573;SDS011;66710;48.868;9.080;2023-01-28T06:25:15;9.27;;;5.10;;
77573;SDS011;66710;48.868;9.080;2023-01-28T06:27:41;11.77;;;5.60;;
77573;SDS011;66710;48.868;9.080;2023-01-28T06:30:06;10.27;;;5.35;;
77573;SDS011;66710;48.868;9.080;2023-01-28T06:32:32;9.77;;;4.93;;
77573;SDS011;66710;48.868;9.080;2023-01-28T06:34:58;11.90;;;5.53;;
77573;SDS011;66710;48.868;9.080;2023-01-28T06:37:23;11.93;;;5.65;;
77573;SDS011;66710;48.868;9.080;2023-01-28T06:39:48;11.63;;;5.80;;
77573;SDS011;66710;48.868;9.080;2023-01-28T06:42:14;10.85;;;5.55;;
77573;SDS011;66710;48.868;9.080;2023-01-28T06:44:39;11.88;;;6.32;;
77573;SDS011;66710;48.868;9.080;2023-01-28T06:47:04;15.70;;;6.88;;
77573;SDS011;66710;48.868;9.080;2023-01-28T06:49:30;13.80;;;6.32;;
77573;SDS011;66710;48.868;9.080;2023-01-28T06:51:55;13.23;;;6.57;;
77573;SDS011;66710;48.868;9.080;2023-01-28T06:54:20;11.52;;;6.00;;
77573;SDS011;66710;48.868;9.080;2023-01-28T06:56:46;10.80;;;5.93;;
77573;SDS011;66710;48.868;9.080;2023-01-28T06:59:11;9.55;;;5.53;;
77573;SDS011;66710;48.868;9.080;2023-01-28T07:01:36;9.73;;;4.75;;
77573;SDS011;66710;48.868;9.080;2023-01-28T07:04:02;12.25;;;6.35;;
77573;SDS011;66710;48.868;9.080;2023-01-28T07:06:27;13.77;;;6.90;;
77573;SDS011;66710;48.868;9.080;2023-01-28T07:08:53;11.85;;;6.00;;
77573;SDS011;66710;48.868;9.080;2023-01-28T07:11:18;13.82;;;7.28;;
77573;SDS011;66710;48.868;9.080;2023-01-28T07:13:43;11.80;;;6.55;;
77573;SDS011;66710;48.868;9.080;2023-01-28T07:16:09;12.30;;;6.85;;
77573;SDS011;66710;48.868;9.080;2023-01-28T07:18:34;13.68;;;7.00;;
77573;SDS011;66710;48.868;9.080;2023-01-28T07:20:59;12.45;;;7.03;;
77573;SDS011;66710;48.868;9.080;2023-01-28T07:23:25;12.27;;;6.68;;
77573;SDS011;66710;48.868;9.080;2023-01-28T07:25:50;13.15;;;7.03;;
77573;SDS011;66710;48.868;9.080;2023-01-28T07:28:16;11.70;;;6.30;;
77573;SDS011;66710;48.868;9.080;2023-01-28T07:30:48;13.02;;;6.93;;
77573;SDS011;66710;48.868;9.080;2023-01-28T07:33:16;16.15;;;6.88;;
77573;SDS011;66710;48.868;9.080;2023-01-28T07:35:42;12.25;;;6.90;;
77573;SDS011;66710;48.868;9.080;2023-01-28T07:38:07;13.98;;;7.70;;
77573;SDS011;66710;48.868;9.080;2023-01-28T07:40:33;10.70;;;5.93;;
77573;SDS011;66710;48.868;9.080;2023-01-28T07:42:58;11.68;;;7.13;;
77573;SDS011;66710;48.868;9.080;2023-01-28T07:45:24;13.15;;;6.18;;
77573;SDS011;66710;48.868;9.080;2023-01-28T07:47:52;12.18;;;6.70;;
77573;SDS011;66710;48.868;9.080;2023-01-28T07:50:21;13.50;;;6.93;;
77573;SDS011;66710;48.868;9.080;2023-01-28T07:52:46;12.27;;;7.22;;
77573;SDS011;66710;48.868;9.080;2023-01-28T07:55:12;12.57;;;7.15;;
77573;SDS011;66710;48.868;9.080;2023-01-28T07:57:49;13.60;;;7.32;;
77573;SDS011;66710;48.868;9.080;2023-01-28T08:00:19;10.68;;;6.22;;
77573;SDS011;66710;48.868;9.080;2023-01-28T08:02:46;14.20;;;7.30;;
77573;SDS011;66710;48.868;9.080;2023-01-28T08:05:16;14.70;;;6.55;;
77573;SDS011;66710;48.868;9.080;2023-01-28T08:07:42;13.52;;;7.55;;
77573;SDS011;66710;48.868;9.080;2023-01-28T08:10:09;12.50;;;6.90;;
77573;SDS011;66710;48.868;9.080;2023-01-28T08:12:36;14.13;;;6.60;;
77573;SDS011;66710;48.868;9.080;2023-01-28T08:15:02;12.85;;;6.43;;
77573;SDS011;66710;48.868;9.080;2023-01-28T08:17:29;10.63;;;6.20;;
77573;SDS011;66710;48.868;9.080;2023-01-28T08:19:55;13.77;;;7.10;;
77573;SDS011;66710;48.868;9.080;2023-01-28T08:22:23;12.85;;;7.63;;
77573;SDS011;66710;48.868;9.080;2023-01-28T08:24:49;12.65;;;6.78;;
77573;SDS011;66710;48.868;9.080;2023-01-28T08:27:15;12.70;;;6.63;;
77573;SDS011;66710;48.868;9.080;2023-01-28T08:29:40;11.52;;;6.57;;
77573;SDS011;66710;48.868;9.080;2023-01-28T08:32:07;13.73;;;7.03;;
77573;SDS011;66710;48.868;9.080;2023-01-28T08:34:33;11.45;;;6.45;;
77573;SDS011;66710;48.868;9.080;2023-01-28T08:36:59;12.77;;;6.72;;
77573;SDS011;66710;48.868;9.080;2023-01-28T08:39:24;13.13;;;6.68;;
77573;SDS011;66710;48.868;9.080;2023-01-28T08:41:50;12.40;;;6.40;;
77573;SDS011;66710;48.868;9.080;2023-01-28T08:44:15;11.38;;;5.97;;
77573;SDS011;66710;48.868;9.080;2023-01-28T08:46:40;12.32;;;6.65;;
77573;SDS011;66710;48.868;9.080;2023-01-28T08:49:06;17.75;;;7.35;;
77573;SDS011;66710;48.868;9.080;2023-01-28T08:51:31;14.02;;;7.28;;
77573;SDS011;66710;48.868;9.080;2023-01-28T08:53:57;12.02;;;6.72;;
77573;SDS011;66710;48.868;9.080;2023-01-28T08:56:22;14.70;;;7.78;;
77573;SDS011;66710;48.868;9.080;2023-01-28T08:58:47;14.93;;;8.15;;
77573;SDS011;66710;48.868;9.080;2023-01-28T09:01:13;13.23;;;6.30;;
77573;SDS011;66710;48.868;9.080;2023-01-28T09:03:38;16.35;;;7.75;;
77573;SDS011;66710;48.868;9.080;2023-01-28T09:06:04;13.35;;;7.00;;
77573;SDS011;66710;48.868;9.080;2023-01-28T09:08:30;15.63;;;8.18;;
77573;SDS011;66710;48.868;9.080;2023-01-28T09:10:56;14.93;;;7.72;;
77573;SDS011;66710;48.868;9.080;2023-01-28T09:13:22;11.57;;;6.35;;
77573;SDS011;66710;48.868;9.080;2023-01-28T09:15:48;12.20;;;6.22;;
77573;SDS011;66710;48.868;9.080;2023-01-28T09:18:13;15.63;;;6.40;;
77573;SDS011;66710;48.868;9.080;2023-01-28T09:20:39;15.02;;;7.50;;
77573;SDS011;66710;48.868;9.080;2023-01-28T09:23:04;15.07;;;7.32;;
77573;SDS011;66710;48.868;9.080;2023-01-28T09:25:30;13.35;;;7.03;;
77573;SDS011;66710;48.868;9.080;2023-01-28T09:27:56;12.60;;;7.25;;
77573;SDS011;66710;48.868;9.080;2023-01-28T09:30:22;15.77;;;7.78;;
77573;SDS011;66710;48.868;9.080;2023-01-28T09:32:51;16.20;;;8.32;;
77573;SDS011;66710;48.868;9.080;2023-01-28T09:35:17;14.70;;;7.85;;
77573;SDS011;66710;48.868;9.080;2023-01-28T09:37:44;15.43;;;7.90;;
77573;SDS011;66710;48.868;9.080;2023-01-28T09:40:14;20.75;;;9.57;;
77573;SDS011;66710;48.868;9.080;2023-01-28T09:43:05;19.73;;;10.05;;
77573;SDS011;66710;48.868;9.080;2023-01-28T09:45:39;23.15;;;11.98;;
77573;SDS011;66710;48.868;9.080;2023-01-28T09:48:30;18.70;;;10.82;;
77573;SDS011;66710;48.868;9.080;2023-01-28T09:50:57;16.98;;;8.23;;
77573;SDS011;66710;48.868;9.080;2023-01-28T09:53:28;15.32;;;8.77;;
77573;SDS011;66710;48.868;9.080;2023-01-28T09:58:27;18.88;;;8.93;;
77573;SDS011;66710;48.868;9.080;2023-01-28T10:01:15;17.83;;;8.93;;
77573;SDS011;66710;48.868;9.080;2023-01-28T10:06:17;14.77;;;7.85;;
77573;SDS011;66710;48.868;9.080;2023-01-28T10:14:52;16.42;;;7.93;;
77573;SDS011;66710;48.868;9.080;2023-01-28T10:17:31;16.15;;;8.60;;
77573;SDS011;66710;48.868;9.080;2023-01-28T10:20:07;16.05;;;8.65;;
77573;SDS011;66710;48.868;9.080;2023-01-28T10:25:30;16.33;;;8.77;;
77573;SDS011;66710;48.868;9.080;2023-01-28T10:27:56;5.45;;;2.63;;
77573;SDS011;66710;48.868;9.080;2023-01-28T10:30:26;19.60;;;10.38;;
77573;SDS011;66710;48.868;9.080;2023-01-28T10:33:12;18.77;;;9.27;;
77573;SDS011;66710;48.868;9.080;2023-01-28T10:35:42;16.20;;;8.68;;
77573;SDS011;66710;48.868;9.080;2023-01-28T10:38:09;15.27;;;8.35;;
77573;SDS011;66710;48.868;9.080;2023-01-28T10:40:41;16.10;;;8.52;;
77573;SDS011;66710;48.868;9.080;2023-01-28T10:43:07;18.25;;;9.13;;
77573;SDS011;66710;48.868;9.080;2023-01-28T10:45:34;16.58;;;9.30;;
77573;SDS011;66710;48.868;9.080;2023-01-28T10:48:16;14.70;;;8.00;;
77573;SDS011;66710;48.868;9.080;2023-01-28T10:50:56;16.42;;;8.48;;
77573;SDS011;66710;48.868;9.080;2023-01-28T10:53:41;14.30;;;7.28;;
77573;SDS011;66710;48.868;9.080;2023-01-28T10:56:17;14.65;;;8.38;;
77573;SDS011;66710;48.868;9.080;2023-01-28T10:58:53;17.53;;;9.03;;
77573;SDS011;66710;48.868;9.080;2023-01-28T11:01:23;15.80;;;9.57;;
77573;SDS011;66710;48.868;9.080;2023-01-28T11:03:56;16.42;;;9.57;;
77573;SDS011;66710;48.868;9.080;2023-01-28T11:06:26;17.13;;;7.35;;
77573;SDS011;66710;48.868;9.080;2023-01-28T11:08:53;15.75;;;7.22;;
77573;SDS011;66710;48.868;9.080;2023-01-28T11:11:23;12.10;;;5.75;;
77573;SDS011;66710;48.868;9.080;2023-01-28T11:13:51;13.77;;;7.13;;
77573;SDS011;66710;48.868;9.080;2023-01-28T11:16:22;14.30;;;7.80;;
77573;SDS011;66710;48.868;9.080;2023-01-28T11:19:02;17.38;;;8.73;;
77573;SDS011;66710;48.868;9.080;2023-01-28T11:21:32;15.23;;;7.60;;
77573;SDS011;66710;48.868;9.080;2023-01-28T11:24:00;10.63;;;5.95;;
77573;SDS011;66710;48.868;9.080;2023-01-28T11:26:31;16.08;;;7.80;;
77573;SDS011;66710;48.868;9.080;2023-01-28T11:29:00;12.93;;;6.15;;
77573;SDS011;66710;48.868;9.080;2023-01-28T11:31:25;9.18;;;4.88;;
77573;SDS011;66710;48.868;9.080;2023-01-28T11:33:56;15.30;;;7.60;;
77573;SDS011;66710;48.868;9.080;2023-01-28T11:36:24;13.88;;;7.10;;
77573;SDS011;66710;48.868;9.080;2023-01-28T11:38:53;17.33;;;8.20;;
77573;SDS011;66710;48.868;9.080;2023-01-28T11:41:24;14.93;;;7.53;;
77573;SDS011;66710;48.868;9.080;2023-01-28T11:43:54;13.15;;;7.93;;
77573;SDS011;66710;48.868;9.080;2023-01-28T11:46:25;10.98;;;6.32;;
77573;SDS011;66710;48.868;9.080;2023-01-28T11:49:29;15.77;;;7.72;;
77573;SDS011;66710;48.868;9.080;2023-01-28T11:52:30;16.88;;;7.80;;
77573;SDS011;66710;48.868;9.080;2023-01-28T12:04:10;11.43;;;5.90;;
77573;SDS011;66710;48.868;9.080;2023-01-28T12:09:29;12.65;;;6.70;;
77573;SDS011;66710;48.868;9.080;2023-01-28T12:14:59;11.95;;;6.05;;
77573;SDS011;66710;48.868;9.080;2023-01-28T12:41:43;13.30;;;6.88;;
77573;SDS011;66710;48.868;9.080;2023-01-28T12:44:17;13.95;;;6.68;;
77573;SDS011;66710;48.868;9.080;2023-01-28T12:46:49;13.15;;;7.85;;
77573;SDS011;66710;48.868;9.080;2023-01-28T12:49:26;14.05;;;7.30;;
77573;SDS011;66710;48.868;9.080;2023-01-28T12:52:01;12.40;;;6.30;;
77573;SDS011;66710;48.868;9.080;2023-01-28T12:54:38;19.67;;;7.20;;
77573;SDS011;66710;48.868;9.080;2023-01-28T12:57:13;11.48;;;6.22;;
77573;SDS011;66710;48.868;9.080;2023-01-28T12:59:47;10.93;;;5.75;;
77573;SDS011;66710;48.868;9.080;2023-01-28T13:02:20;13.55;;;5.10;;
77573;SDS011;66710;48.868;9.080;2023-01-28T13:07:40;11.27;;;6.60;;
77573;SDS011;66710;48.868;9.080;2023-01-28T13:12:53;8.05;;;3.90;;
77573;SDS011;66710;48.868;9.080;2023-01-28T13:15:20;15.52;;;8.18;;
77573;SDS011;66710;48.868;9.080;2023-01-28T13:17:57;11.10;;;5.93;;
77573;SDS011;66710;48.868;9.080;2023-01-28T13:20:37;17.17;;;8.30;;
77573;SDS011;66710;48.868;9.080;2023-01-28T13:23:24;15.23;;;7.78;;
77573;SDS011;66710;48.868;9.080;2023-01-28T13:25:55;7.70;;;4.45;;
77573;SDS011;66710;48.868;9.080;2023-01-28T13:28:32;14.48;;;7.72;;
77573;SDS011;66710;48.868;9.080;2023-01-28T13:31:02;14.45;;;7.65;;
77573;SDS011;66710;48.868;9.080;2023-01-28T13:33:31;10.85;;;6.47;;
77573;SDS011;66710;48.868;9.080;2023-01-28T13:36:02;14.60;;;7.78;;
77573;SDS011;66710;48.868;9.080;2023-01-28T13:38:42;10.88;;;5.53;;
77573;SDS011;66710;48.868;9.080;2023-01-28T13:41:09;12.75;;;6.80;;
77573;SDS011;66710;48.868;9.080;2023-01-28T13:43:36;13.68;;;6.57;;
77573;SDS011;66710;48.868;9.080;2023-01-28T13:46:08;14.43;;;7.70;;
77573;SDS011;66710;48.868;9.080;2023-01-28T13:51:15;12.63;;;6.80;;
77573;SDS011;66710;48.868;9.080;2023-01-28T13:56:27;8.80;;;4.65;;
77573;SDS011;66710;48.868;9.080;2023-01-28T14:04:36;12.18;;;6.75;;
77573;SDS011;66710;48.868;9.080;2023-01-28T14:12:58;15.27;;;7.95;;
77573;SDS011;66710;48.868;9.080;2023-01-28T14:15:52;10.00;;;5.43;;
77573;SDS011;66710;48.868;9.080;2023-01-28T14:18:38;9.70;;;5.43;;
77573;SDS011;66710;48.868;9.080;2023-01-28T14:21:20;10.10;;;5.65;;
77573;SDS011;66710;48.868;9.080;2023-01-28T14:23:53;4.68;;;2.88;;
77573;SDS011;66710;48.868;9.080;2023-01-28T14:31:35;8.80;;;4.97;;
77573;SDS011;66710;48.868;9.080;2023-01-28T14:36:48;18.73;;;7.75;;
77573;SDS011;66710;48.868;9.080;2023-01-28T14:39:19;12.65;;;6.72;;
77573;SDS011;66710;48.868;9.080;2023-01-28T14:41:49;12.23;;;7.18;;
77573;SDS011;66710;48.868;9.080;2023-01-28T14:46:57;14.80;;;6.95;;
77573;SDS011;66710;48.868;9.080;2023-01-28T14:57:58;7.18;;;3.53;;
77573;SDS011;66710;48.868;9.080;2023-01-28T15:00:29;11.05;;;6.05;;
77573;SDS011;66710;48.868;9.080;2023-01-28T15:02:57;6.90;;;3.55;;
77573;SDS011;66710;48.868;9.080;2023-01-28T15:05:23;8.73;;;4.78;;
77573;SDS011;66710;48.868;9.080;2023-01-28T15:07:50;10.63;;;5.45;;
77573;SDS011;66710;48.868;9.080;2023-01-28T15:10:18;9.45;;;5.00;;
77573;SDS011;66710;48.868;9.080;2023-01-28T15:12:55;10.13;;;5.18;;
77573;SDS011;66710;48.868;9.080;2023-01-28T15:15:26;9.82;;;4.63;;
77573;SDS011;66710;48.868;9.080;2023-01-28T15:18:41;8.73;;;5.03;;
77573;SDS011;66710;48.868;9.080;2023-01-28T15:21:01;11.52;;;5.45;;
77573;SDS011;66710;48.868;9.080;2023-01-28T15:23:36;6.32;;;3.70;;
77573;SDS011;66710;48.868;9.080;2023-01-28T15:26:04;8.73;;;4.80;;
77573;SDS011;66710;48.868;9.080;2023-01-28T15:28:32;6.43;;;3.88;;
77573;SDS011;66710;48.868;9.080;2023-01-28T15:31:01;9.00;;;4.85;;
77573;SDS011;66710;48.868;9.080;2023-01-28T15:33:27;10.55;;;5.85;;
77573;SDS011;66710;48.868;9.080;2023-01-28T15:35:53;11.75;;;5.60;;
77573;SDS011;66710;48.868;9.080;2023-01-28T15:38:20;8.75;;;4.45;;
77573;SDS011;66710;48.868;9.080;2023-01-28T15:40:48;10.07;;;4.38;;
77573;SDS011;66710;48.868;9.080;2023-01-28T15:45:51;8.73;;;5.10;;
77573;SDS011;66710;48.868;9.080;2023-01-28T15:48:20;8.77;;;4.75;;
77573;SDS011;66710;48.868;9.080;2023-01-28T15:50:47;9.55;;;5.07;;
77573;SDS011;66710;48.868;9.080;2023-01-28T15:53:21;9.73;;;5.25;;
77573;SDS011;66710;48.868;9.080;2023-01-28T15:55:46;9.30;;;5.10;;
77573;SDS011;66710;48.868;9.080;2023-01-28T15:58:26;10.27;;;5.95;;
77573;SDS011;66710;48.868;9.080;2023-01-28T16:03:35;4.72;;;2.85;;
77573;SDS011;66710;48.868;9.080;2023-01-28T16:06:28;7.63;;;3.90;;
77573;SDS011;66710;48.868;9.080;2023-01-28T16:08:54;9.52;;;4.35;;
77573;SDS011;66710;48.868;9.080;2023-01-28T16:11:26;9.77;;;5.40;;
77573;SDS011;66710;48.868;9.080;2023-01-28T16:13:54;10.35;;;5.30;;
77573;SDS011;66710;48.868;9.080;2023-01-28T16:16:25;5.80;;;3.45;;
77573;SDS011;66710;48.868;9.080;2023-01-28T16:18:51;10.10;;;6.20;;
77573;SDS011;66710;48.868;9.080;2023-01-28T16:21:30;10.52;;;5.57;;
77573;SDS011;66710;48.868;9.080;2023-01-28T16:26:31;7.53;;;3.85;;
77573;SDS011;66710;48.868;9.080;2023-01-28T16:29:19;10.45;;;5.88;;
77573;SDS011;66710;48.868;9.080;2023-01-28T16:31:43;8.32;;;4.78;;
77573;SDS011;66710;48.868;9.080;2023-01-28T16:34:09;8.65;;;4.93;;
77573;SDS011;66710;48.868;9.080;2023-01-28T16:36:35;8.20;;;4.68;;
77573;SDS011;66710;48.868;9.080;2023-01-28T16:39:01;10.10;;;5.32;;
77573;SDS011;66710;48.868;9.080;2023-01-28T16:41:27;10.82;;;6.28;;
77573;SDS011;66710;48.868;9.080;2023-01-28T16:43:56;10.40;;;6.32;;
77573;SDS011;66710;48.868;9.080;2023-01-28T16:46:25;9.88;;;5.88;;
77573;SDS011;66710;48.868;9.080;2023-01-28T16:49:00;9.23;;;5.70;;
77573;SDS011;66710;48.868;9.080;2023-01-28T16:51:26;9.32;;;5.40;;
77573;SDS011;66710;48.868;9.080;2023-01-28T16:53:52;9.25;;;5.05;;
77573;SDS011;66710;48.868;9.080;2023-01-28T16:56:19;8.88;;;5.45;;
77573;SDS011;66710;48.868;9.080;2023-01-28T16:58:46;10.20;;;6.20;;
77573;SDS011;66710;48.868;9.080;2023-01-28T17:01:11;9.50;;;5.88;;
77573;SDS011;66710;48.868;9.080;2023-01-28T17:03:37;9.32;;;4.82;;
77573;SDS011;66710;48.868;9.080;2023-01-28T17:06:04;8.98;;;5.00;;
77573;SDS011;66710;48.868;9.080;2023-01-28T17:08:30;8.88;;;4.88;;